Time;durP1;ratioP1;P1;durP2;ratioP2;P2;SDS_P1;SDS_P2;PMS_P1;PMS_P2;Temp;Humidity;BMP_temperature;BMP_pressure;BME280_temperature;BME280_humidity;BME280_pressure;Samples;Min_cycle;Max_cycle;Signal;HPM_P1;HPM_P2
2021/07/01 00:00:59;;;;;;;;;;;13.50;99.90;;;;;;5076437;28;20496;-67
2021/07/01 00:03:25;;;;;;;7.07;3.47;;;13.60;99.90;;;;;;5073500;28;19920;-66
2021/07/01 00:05:51;;;;;;;;;;;13.50;99.90;;;;;;5060645;28;20195;-65
2021/07/01 00:08:16;;;;;;;7.95;2.67;;;13.60;99.90;;;;;;5061898;28;20276;-68
2021/07/01 00:10:42;;;;;;;;;;;13.50;99.90;;;;;;5063731;28;20036;-68
2021/07/01 00:13:08;;;;;;;6.70;2.70;;;13.50;99.90;;;;;;5063461;28;19916;-66
2021/07/01 00:15:41;;;;;;;;;;;13.40;99.90;;;;;;5059250;28;20480;-66
2021/07/01 00:18:07;;;;;;;6.35;3.78;;;13.50;99.90;;;;;;5052573;28;19928;-66
2021/07/01 00:20:32;;;;;;;;;;;13.30;99.90;;;;;;5050397;28;20033;-65
2021/07/01 00:22:58;;;;;;;7.10;4.70;;;13.40;99.90;;;;;;5057426;28;19960;-65
2021/07/01 00:25:23;;;;;;;;;;;13.30;99.90;;;;;;5057800;28;20041;-66
2021/07/01 00:27:49;;;;;;;7.10;4.13;;;13.30;99.90;;;;;;5049818;28;19935;-66
2021/07/01 00:30:16;;;;;;;;;;;13.20;99.90;;;;;;5062923;28;20072;-65
2021/07/01 00:32:42;;;;;;;9.93;3.33;;;13.30;99.90;;;;;;5049059;28;19916;-65
2021/07/01 00:35:09;;;;;;;12.10;5.53;;;13.20;99.90;;;;;;5057751;28;20048;-66
2021/07/01 00:37:34;;;;;;;6.70;3.88;;;13.10;99.90;;;;;;5056217;28;20044;-66
2021/07/01 00:40:00;;;;;;;;;;;13.20;99.90;;;;;;5066177;28;20090;-65
2021/07/01 00:42:26;;;;;;;10.93;5.22;;;13.10;99.90;;;;;;5068708;28;20378;-66
2021/07/01 00:44:51;;;;;;;;;;;13.10;99.90;;;;;;5061640;28;20044;-66
2021/07/01 00:47:18;;;;;;;7.72;4.53;;;13.20;99.90;;;;;;5047670;28;19916;-66
2021/07/01 00:49:44;;;;;;;10.02;5.07;;;13.20;99.90;;;;;;5054472;28;20043;-66
2021/07/01 00:52:10;;;;;;;;;;;13.20;99.90;;;;;;5058358;28;20032;-66
2021/07/01 00:54:37;;;;;;;7.65;4.10;;;13.20;99.90;;;;;;5066560;28;19916;-65
2021/07/01 00:57:03;;;;;;;8.95;3.97;;;13.20;99.90;;;;;;5055054;28;20114;-64
2021/07/01 00:59:29;;;;;;;7.28;4.22;;;13.20;99.90;;;;;;5059297;28;20040;-65
2021/07/01 01:01:55;;;;;;;8.93;4.63;;;13.20;99.90;;;;;;5067825;28;20540;-66
2021/07/01 01:04:21;;;;;;;;;;;13.10;99.90;;;;;;5070197;28;20059;-66
2021/07/01 01:06:47;;;;;;;8.32;4.20;;;13.10;99.90;;;;;;5065894;28;20015;-66
2021/07/01 01:09:13;;;;;;;9.13;5.00;;;13.00;99.90;;;;;;5064687;28;20443;-66
2021/07/01 01:11:39;;;;;;;;;;;13.10;99.90;;;;;;5065108;28;20041;-66
2021/07/01 01:14:04;;;;;;;9.82;5.15;;;13.00;99.90;;;;;;5066459;28;19970;-66
2021/07/01 01:16:30;;;;;;;;;;;13.00;99.90;;;;;;5065437;28;20086;-66
2021/07/01 01:18:55;;;;;;;6.65;4.22;;;13.00;99.90;;;;;;5067042;28;19916;-66
2021/07/01 01:21:25;;;;;;;;;;;13.00;99.90;;;;;;5058554;28;20044;-66
2021/07/01 01:23:53;;;;;;;7.15;3.50;;;12.90;99.90;;;;;;5051536;28;19928;-66
2021/07/01 01:26:19;;;;;;;7.80;4.47;;;13.00;99.90;;;;;;5040660;28;20078;-66
2021/07/01 01:28:45;;;;;;;;;;;13.00;99.90;;;;;;5048874;28;20045;-65
2021/07/01 01:31:10;;;;;;;10.00;5.97;;;13.00;99.90;;;;;;5047401;28;19916;-65
2021/07/01 01:33:36;;;;;;;;;;;12.90;99.90;;;;;;5045458;28;20221;-66
2021/07/01 01:36:01;;;;;;;12.80;6.43;;;13.00;99.90;;;;;;5047550;28;19932;-66
2021/07/01 01:38:27;;;;;;;;;;;13.00;99.90;;;;;;5050014;28;20052;-65
2021/07/01 01:40:52;;;;;;;12.18;6.45;;;12.90;99.90;;;;;;5049671;28;20277;-66
2021/07/01 01:43:19;;;;;;;;;;;12.90;99.90;;;;;;5047597;28;20041;-66
2021/07/01 01:45:45;;;;;;;12.25;7.45;;;12.80;99.90;;;;;;5044409;28;20157;-65
2021/07/01 01:48:12;;;;;;;12.48;7.20;;;12.90;99.90;;;;;;5045397;28;20041;-66
2021/07/01 01:50:38;;;;;;;20.27;10.90;;;12.90;99.90;;;;;;5046869;28;20071;-65
2021/07/01 01:53:04;;;;;;;17.77;9.68;;;12.70;99.90;;;;;;5046879;28;20509;-66
2021/07/01 01:55:30;;;;;;;;;;;12.70;99.90;;;;;;5046561;28;20049;-66
2021/07/01 01:57:56;;;;;;;15.68;10.15;;;12.60;99.90;;;;;;5046240;28;19917;-66
2021/07/01 02:00:23;;;;;;;;;;;12.60;99.90;;;;;;5048097;28;20053;-66
2021/07/01 02:02:50;;;;;;;21.13;10.30;;;12.60;99.90;;;;;;5044361;28;19974;-67
2021/07/01 02:05:17;;;;;;;16.55;10.18;;;12.60;99.90;;;;;;5045915;28;20041;-66
2021/07/01 02:07:43;;;;;;;18.40;10.85;;;12.50;99.90;;;;;;5047792;28;20091;-67
2021/07/01 02:10:09;;;;;;;;;;;12.40;99.90;;;;;;5049480;28;20064;-66
2021/07/01 02:12:35;;;;;;;17.00;9.32;;;12.40;99.90;;;;;;5045939;28;19916;-67
2021/07/01 02:15:02;;;;;;;;;;;12.40;99.90;;;;;;5046208;28;20040;-67
2021/07/01 02:17:28;;;;;;;18.45;9.05;;;12.50;99.90;;;;;;5058305;28;19924;-66
2021/07/01 02:19:53;;;;;;;;;;;12.50;99.90;;;;;;5066594;28;20063;-66
2021/07/01 02:22:19;;;;;;;13.90;8.45;;;12.60;99.90;;;;;;5055352;28;20395;-66
2021/07/01 02:24:45;;;;;;;;;;;12.50;99.90;;;;;;5053829;28;20078;-66
2021/07/01 02:27:11;;;;;;;9.98;6.88;;;12.60;99.90;;;;;;5056390;28;19927;-66
2021/07/01 02:29:36;;;;;;;;;;;12.60;99.90;;;;;;5041947;28;20056;-66
2021/07/01 02:32:03;;;;;;;8.45;6.00;;;12.60;99.90;;;;;;5063270;28;19920;-66
2021/07/01 02:34:29;;;;;;;11.80;6.90;;;12.50;99.90;;;;;;5051016;28;20356;-66
2021/07/01 02:36:55;;;;;;;21.40;7.50;;;12.50;99.90;;;;;;5047042;28;20120;-66
2021/07/01 02:39:21;;;;;;;;;;;12.50;99.90;;;;;;5047455;28;20052;-66
2021/07/01 02:41:46;;;;;;;8.15;5.43;;;12.50;99.90;;;;;;5046158;28;20398;-66
2021/07/01 02:44:12;;;;;;;;;;;12.40;99.90;;;;;;5058108;28;20090;-66
2021/07/01 02:46:37;;;;;;;6.93;4.72;;;12.40;99.90;;;;;;5067763;28;20418;-67
2021/07/01 02:49:03;;;;;;;;;;;12.50;99.90;;;;;;5068880;28;20055;-66
2021/07/01 02:51:29;;;;;;;5.85;3.90;;;12.50;99.90;;;;;;5067687;28;19976;-66
2021/07/01 02:53:54;;;;;;;;;;;12.40;99.90;;;;;;5067833;28;20101;-66
2021/07/01 02:56:21;;;;;;;6.20;3.78;;;12.40;99.90;;;;;;5062127;28;19920;-66
2021/07/01 02:58:47;;;;;;;6.80;2.60;;;12.40;99.90;;;;;;5053244;28;20048;-66
2021/07/01 03:01:13;;;;;;;;;;;12.40;99.90;;;;;;5052018;28;20029;-66
2021/07/01 03:03:38;;;;;;;5.90;3.13;;;12.50;99.90;;;;;;5043164;28;19923;-66
2021/07/01 03:06:04;;;;;;;;;;;12.50;99.90;;;;;;5041359;28;20186;-66
2021/07/01 03:08:29;;;;;;;3.60;2.60;;;12.50;99.90;;;;;;5045969;28;19952;-66
2021/07/01 03:10:55;;;;;;;;;;;12.50;99.90;;;;;;5046862;28;20041;-66
2021/07/01 03:13:21;;;;;;;4.43;3.08;;;12.50;99.90;;;;;;5045766;28;19916;-67
2021/07/01 03:15:46;;;;;;;;;;;12.40;99.90;;;;;;5046201;28;20730;-68
2021/07/01 03:18:12;;;;;;;6.63;2.67;;;12.30;99.90;;;;;;5047804;28;19923;-66
2021/07/01 03:20:37;;;;;;;;;;;12.40;99.90;;;;;;5064072;28;20079;-68
2021/07/01 03:23:03;;;;;;;4.13;3.20;;;12.40;99.90;;;;;;5045371;28;19974;-68
2021/07/01 03:25:29;;;;;;;;;;;12.40;99.90;;;;;;5035767;28;20095;-68
2021/07/01 03:27:55;;;;;;;5.22;2.97;;;12.40;99.90;;;;;;5027467;28;19921;-67
2021/07/01 03:30:21;;;;;;;4.93;3.42;;;12.30;99.90;;;;;;5029285;28;20037;-69
2021/07/01 03:32:47;;;;;;;;;;;12.30;99.90;;;;;;5047491;28;20382;-69
2021/07/01 03:35:12;;;;;;;6.82;4.40;;;12.30;99.90;;;;;;5047062;28;19951;-67
2021/07/01 03:37:38;;;;;;;;;;;12.30;99.90;;;;;;5046812;28;20041;-68
2021/07/01 03:40:08;;;;;;;3.90;3.10;;;12.30;99.90;;;;;;5063558;28;19974;-68
2021/07/01 03:42:33;;;;;;;5.00;3.60;;;12.40;99.90;;;;;;5048068;28;20064;-66
2021/07/01 03:45:00;;;;;;;;;;;12.40;99.90;;;;;;5047768;28;20037;-68
2021/07/01 03:47:29;;;;;;;7.93;3.42;;;12.50;99.90;;;;;;5045824;28;19943;-68
2021/07/01 03:49:54;;;;;;;;;;;12.40;99.90;;;;;;5048463;28;20724;-68
2021/07/01 03:52:20;;;;;;;6.47;3.42;;;12.40;99.90;;;;;;5049347;28;19923;-67
2021/07/01 03:54:45;;;;;;;;;;;12.40;99.90;;;;;;5049822;28;20045;-67
2021/07/01 03:57:11;;;;;;;6.68;3.90;;;12.30;99.90;;;;;;5051502;28;19920;-67
2021/07/01 03:59:37;;;;;;;;;;;12.30;99.90;;;;;;5053251;28;20045;-68
2021/07/01 04:02:03;;;;;;;9.48;4.45;;;12.30;99.90;;;;;;5051276;28;19916;-68
2021/07/01 04:04:28;;;;;;;;;;;12.30;99.90;;;;;;5052473;28;20072;-68
2021/07/01 04:06:54;;;;;;;10.75;5.53;;;12.20;99.90;;;;;;5051070;28;20368;-66
2021/07/01 04:09:20;;;;;;;;;;;12.20;99.90;;;;;;5052668;28;20501;-69
2021/07/01 04:11:45;;;;;;;12.65;6.45;;;12.20;99.90;;;;;;5050979;28;19946;-67
2021/07/01 04:14:12;;;;;;;;;;;12.20;99.90;;;;;;5034393;28;20643;-68
2021/07/01 04:16:38;;;;;;;10.80;5.95;;;12.20;99.90;;;;;;5050043;28;20672;-68
2021/07/01 04:19:04;;;;;;;;;;;12.10;99.90;;;;;;5048062;28;20104;-68
2021/07/01 04:21:30;;;;;;;9.05;5.97;;;12.20;99.90;;;;;;5035600;28;20398;-68
2021/07/01 04:23:56;;;;;;;;;;;12.20;99.90;;;;;;5051678;28;20051;-68
2021/07/01 04:26:21;;;;;;;8.40;5.18;;;12.30;99.90;;;;;;5060086;28;20050;-66
2021/07/01 04:28:48;;;;;;;;;;;12.20;99.90;;;;;;5071520;28;20155;-67
2021/07/01 04:31:14;;;;;;;10.73;5.90;;;12.10;99.90;;;;;;5060272;28;19924;-66
2021/07/01 04:33:39;;;;;;;;;;;12.10;99.90;;;;;;5050534;28;20116;-66
2021/07/01 04:36:05;;;;;;;8.57;5.75;;;12.00;99.90;;;;;;5063976;28;19937;-66
2021/07/01 04:38:30;;;;;;;;;;;12.00;99.90;;;;;;5048156;28;20106;-65
2021/07/01 04:40:56;;;;;;;11.93;7.18;;;12.10;99.90;;;;;;5065512;28;19916;-66
2021/07/01 04:43:22;;;;;;;;;;;12.00;99.90;;;;;;5049234;28;20533;-66
2021/07/01 04:45:48;;;;;;;13.07;8.25;;;12.10;99.90;;;;;;5048442;28;20403;-67
2021/07/01 04:48:13;;;;;;;;;;;12.10;99.90;;;;;;5046510;28;20041;-66
2021/07/01 04:50:39;;;;;;;11.48;7.22;;;12.10;99.90;;;;;;5048718;28;19978;-66
2021/07/01 04:53:04;;;;;;;;;;;12.10;99.90;;;;;;5049230;28;20049;-66
2021/07/01 04:55:30;;;;;;;9.98;6.30;;;12.10;99.90;;;;;;5047626;28;20324;-67
2021/07/01 04:57:56;;;;;;;;;;;12.20;99.90;;;;;;5049866;28;20493;-68
2021/07/01 05:00:21;;;;;;;12.73;8.23;;;12.10;99.90;;;;;;5047852;28;19920;-68
2021/07/01 05:02:47;;;;;;;;;;;12.10;99.90;;;;;;5048430;28;20060;-69
2021/07/01 05:05:13;;;;;;;19.65;10.98;;;12.20;99.90;;;;;;5048912;28;20022;-69
2021/07/01 05:07:45;;;;;;;;;;;12.10;99.90;;;;;;5050267;28;20045;-68
2021/07/01 05:10:11;;;;;;;21.13;13.07;;;12.10;99.90;;;;;;5050203;28;19960;-69
2021/07/01 05:12:37;;;;;;;19.27;12.77;;;12.20;99.90;;;;;;5048517;28;20713;-69
2021/07/01 05:15:03;;;;;;;;;;;12.20;99.90;;;;;;5049627;28;20036;-68
2021/07/01 05:17:29;;;;;;;11.65;7.35;;;12.10;99.90;;;;;;5055688;28;19932;-68
2021/07/01 05:19:54;;;;;;;;;;;12.10;99.90;;;;;;5067270;28;20045;-69
2021/07/01 05:22:21;;;;;;;9.73;6.55;;;12.10;99.90;;;;;;5068868;28;19916;-71
2021/07/01 05:24:48;;;;;;;10.35;6.35;;;12.10;99.90;;;;;;5068294;28;20032;-69
2021/07/01 05:27:14;;;;;;;9.27;5.50;;;12.10;99.90;;;;;;5068374;28;20040;-70
2021/07/01 05:29:39;;;;;;;;;;;12.10;99.90;;;;;;5070064;28;20052;-70
2021/07/01 05:32:05;;;;;;;10.10;6.05;;;12.20;99.90;;;;;;5049534;28;20023;-68
2021/07/01 05:34:31;;;;;;;;;;;12.20;99.90;;;;;;5047780;28;20678;-68
2021/07/01 05:36:56;;;;;;;7.00;4.88;;;12.10;99.90;;;;;;5049031;28;19959;-69
2021/07/01 05:39:22;;;;;;;;;;;12.10;99.90;;;;;;5048586;28;20048;-68
2021/07/01 05:41:48;;;;;;;6.50;4.60;;;12.10;99.90;;;;;;5049496;28;19924;-68
2021/07/01 05:44:13;;;;;;;;;;;12.10;99.90;;;;;;5048109;28;20094;-68
2021/07/01 05:46:39;;;;;;;6.30;3.83;;;12.10;99.90;;;;;;5063697;28;19921;-69
2021/07/01 05:49:05;;;;;;;;;;;12.20;99.90;;;;;;5048976;28;20060;-69
2021/07/01 05:51:33;;;;;;;6.70;4.15;;;12.20;99.90;;;;;;5048075;28;20380;-69
2021/07/01 05:56:56;;;;;;;5.68;3.60;;;12.10;99.90;;;;;;5022708;28;20053;-68
2021/07/01 05:59:22;;;;;;;;;;;12.10;99.90;;;;;;5047013;28;20045;-68
2021/07/01 06:01:47;;;;;;;6.03;4.00;;;12.10;99.90;;;;;;5045895;28;19923;-68
2021/07/01 06:04:13;;;;;;;;;;;12.00;99.90;;;;;;5049748;28;20041;-68
2021/07/01 06:06:43;;;;;;;7.28;4.80;;;12.00;99.90;;;;;;5048186;28;19923;-68
2021/07/01 06:09:09;;;;;;;6.88;4.00;;;11.90;99.90;;;;;;5044763;28;20076;-68
2021/07/01 06:11:35;;;;;;;;;;;12.00;99.90;;;;;;5048500;28;20087;-69
2021/07/01 06:14:04;;;;;;;5.97;3.63;;;12.00;99.90;;;;;;5062897;28;19960;-69
2021/07/01 06:16:32;;;;;;;5.88;4.25;;;12.10;99.90;;;;;;5039459;28;20139;-69
2021/07/01 06:19:01;;;;;;;7.50;4.30;;;12.10;99.90;;;;;;5043011;28;20480;-69
2021/07/01 06:21:27;;;;;;;10.70;5.20;;;12.10;99.90;;;;;;5042115;28;20498;-69
2021/07/01 06:23:54;;;;;;;8.48;5.45;;;12.00;99.90;;;;;;5025452;28;20099;-69
2021/07/01 06:26:26;;;;;;;12.68;7.03;;;12.10;99.90;;;;;;5028941;28;20052;-68
2021/07/01 06:28:52;;;;;;;9.98;6.57;;;12.00;99.90;;;;;;5047579;28;20048;-69
2021/07/01 06:31:18;;;;;;;;;;;12.00;99.90;;;;;;5047869;28;20480;-69
2021/07/01 06:33:45;;;;;;;15.10;8.73;;;12.00;99.90;;;;;;5048174;28;19995;-69
2021/07/01 06:36:12;;;;;;;13.13;8.10;;;12.00;99.90;;;;;;5045599;28;20712;-69
2021/07/01 06:38:42;;;;;;;14.07;7.80;;;12.10;99.90;;;;;;5038548;28;20045;-69
2021/07/01 06:41:09;;;;;;;10.77;7.13;;;12.10;99.90;;;;;;5039938;28;20657;-69
2021/07/01 06:43:36;;;;;;;16.67;9.02;;;12.10;99.90;;;;;;5031491;28;20045;-67
2021/07/01 06:46:07;;;;;;;12.60;7.35;;;12.10;99.90;;;;;;5041879;28;20041;-67
2021/07/01 06:48:33;;;;;;;10.95;6.22;;;12.20;99.90;;;;;;5034508;28;20782;-67
2021/07/01 06:51:00;;;;;;;10.80;6.45;;;12.20;99.90;;;;;;5046974;28;20504;-70
2021/07/01 06:53:28;;;;;;;9.57;5.20;;;12.10;99.90;;;;;;5061539;28;20045;-70
2021/07/01 06:55:54;;;;;;;5.78;3.95;;;12.10;99.90;;;;;;5046270;28;20041;-69
2021/07/01 06:58:22;;;;;;;8.23;4.25;;;12.10;99.90;;;;;;5045114;28;20041;-70
2021/07/01 07:00:49;;;;;;;8.95;3.50;;;12.20;99.90;;;;;;5041101;28;20095;-67
2021/07/01 07:03:17;;;;;;;5.63;3.47;;;12.20;99.90;;;;;;5026691;28;20095;-72
2021/07/01 07:05:52;;;;;;;4.85;2.92;;;12.20;99.90;;;;;;5026303;28;20041;-70
2021/07/01 07:08:19;;;;;;;4.68;2.72;;;12.20;99.90;;;;;;5027101;28;20037;-69
2021/07/01 07:10:46;;;;;;;3.92;2.28;;;12.20;99.90;;;;;;5020034;28;20537;-69
2021/07/01 07:13:13;;;;;;;4.00;2.50;;;12.20;99.90;;;;;;5008674;28;20110;-70
2021/07/01 07:15:40;;;;;;;5.28;2.78;;;12.20;99.90;;;;;;5018454;28;20041;-69
2021/07/01 07:18:17;;;;;;;3.90;2.70;;;12.30;99.90;;;;;;5019899;22;20071;-76
2021/07/01 07:21:13;;;;;;;4.25;3.10;;;12.30;99.90;;;;;;5020770;28;20046;-76
2021/07/01 07:24:06;;;;;;;5.30;3.60;;;12.30;99.90;;;;;;5006169;28;20033;-75
2021/07/01 07:26:36;;;;;;;8.00;3.13;;;12.20;99.90;;;;;;5014905;28;20064;-76
2021/07/01 07:29:24;;;;;;;6.47;4.18;;;12.30;99.90;;;;;;5007709;28;20064;-76
2021/07/01 07:31:50;;;;;;;6.95;5.05;;;12.20;99.90;;;;;;5008058;22;20422;-68
2021/07/01 07:34:16;;;;;;;6.93;4.53;;;12.30;99.90;;;;;;5007674;28;20121;-68
2021/07/01 07:36:42;;;;;;;;;;;12.30;99.90;;;;;;4999931;28;20128;-69
2021/07/01 07:41:46;;;;;;;10.50;7.10;;;12.30;99.90;;;;;;5744428;23;20119;-69
2021/07/01 07:44:13;;;;;;;12.70;7.25;;;12.30;99.90;;;;;;5020211;28;20112;-69
2021/07/01 07:46:39;;;;;;;12.05;6.72;;;12.30;99.90;;;;;;5030205;28;20416;-69
2021/07/01 07:49:04;;;;;;;;;;;12.30;99.90;;;;;;5023054;28;20045;-67
2021/07/01 07:51:33;;;;;;;9.55;6.45;;;12.30;99.90;;;;;;5027236;28;20338;-67
2021/07/01 07:54:05;;;;;;;8.02;5.35;;;12.20;99.90;;;;;;5016625;28;20184;-66
2021/07/01 07:56:38;;;;;;;8.35;6.03;;;12.20;99.90;;;;;;5021812;28;20051;-69
2021/07/01 07:59:11;;;;;;;6.63;4.82;;;12.10;99.90;;;;;;5023914;28;20049;-70
2021/07/01 08:01:38;;;;;;;5.03;3.85;;;12.20;99.90;;;;;;5013133;28;20045;-71
2021/07/01 08:04:08;;;;;;;5.93;3.67;;;12.20;99.90;;;;;;5030134;28;20065;-67
2021/07/01 08:06:34;;;;;;;4.05;3.00;;;12.20;99.90;;;;;;5016194;28;20183;-68
2021/07/01 08:09:02;;;;;;;5.53;3.80;;;12.20;99.90;;;;;;5021458;28;20037;-68
2021/07/01 08:11:31;;;;;;;4.00;2.88;;;12.20;99.90;;;;;;5014070;28;20048;-68
2021/07/01 08:13:59;;;;;;;3.47;2.67;;;12.20;99.90;;;;;;5029360;28;20496;-68
2021/07/01 08:16:26;;;;;;;3.17;2.20;;;12.20;99.90;;;;;;5022498;28;20048;-68
2021/07/01 08:18:52;;;;;;;3.92;2.40;;;12.20;99.90;;;;;;5030669;28;20088;-68
2021/07/01 08:21:19;;;;;;;2.83;2.25;;;12.30;99.90;;;;;;5021329;28;20052;-67
2021/07/01 08:23:46;;;;;;;5.13;1.98;;;12.20;99.90;;;;;;5031071;28;20079;-66
2021/07/01 08:26:13;;;;;;;4.47;2.17;;;12.30;99.90;;;;;;5026489;28;20132;-66
2021/07/01 08:28:41;;;;;;;4.75;2.60;;;12.30;99.90;;;;;;5023578;28;20049;-67
2021/07/01 08:31:12;;;;;;;3.72;2.25;;;12.30;99.90;;;;;;5005302;28;20052;-67
2021/07/01 08:33:40;;;;;;;4.00;2.38;;;12.20;99.90;;;;;;5004956;28;20406;-66
2021/07/01 08:36:11;;;;;;;2.83;2.22;;;12.30;99.90;;;;;;5012543;28;20061;-66
2021/07/01 08:38:38;;;;;;;3.42;2.20;;;12.30;99.90;;;;;;5029668;28;20045;-68
2021/07/01 08:41:25;;;;;;;3.15;1.73;;;12.30;99.90;;;;;;5013803;28;20042;-68
2021/07/01 08:43:55;;;;;;;3.78;1.88;;;12.30;99.90;;;;;;5012237;28;20050;-67
2021/07/01 08:46:27;;;;;;;2.97;1.65;;;12.40;99.90;;;;;;5030833;28;20041;-68
2021/07/01 08:48:56;;;;;;;2.70;1.60;;;12.30;99.90;;;;;;5050380;28;20095;-68
2021/07/01 08:51:30;;;;;;;2.05;1.40;;;12.40;99.90;;;;;;5050046;28;20178;-70
2021/07/01 08:54:22;;;;;;;4.45;1.58;;;12.40;99.90;;;;;;5050055;28;20048;-68
2021/07/01 08:56:49;;;;;;;1.85;1.40;;;12.40;99.90;;;;;;5046811;28;20063;-68
2021/07/01 08:59:18;;;;;;;3.33;1.80;;;12.50;99.90;;;;;;5047742;28;20128;-67
2021/07/01 09:01:54;;;;;;;3.80;1.80;;;12.50;99.90;;;;;;5032056;28;20037;-67
2021/07/01 09:04:23;;;;;;;4.22;2.17;;;12.50;99.90;;;;;;5010531;28;20044;-67
2021/07/01 09:06:56;;;;;;;5.00;2.97;;;12.60;99.90;;;;;;5029437;28;20088;-67
2021/07/01 09:09:29;;;;;;;5.97;4.28;;;12.50;99.90;;;;;;5024052;28;20084;-67
2021/07/01 09:11:54;;;;;;;9.25;4.90;;;12.60;99.90;;;;;;5027786;28;20102;-67
2021/07/01 09:14:23;;;;;;;;;;;12.50;99.90;;;;;;5014963;28;20116;-67
2021/07/01 09:16:49;;;;;;;10.75;6.93;;;12.50;99.90;;;;;;5044299;28;19927;-68
2021/07/01 09:19:17;;;;;;;10.45;6.07;;;12.50;99.90;;;;;;5068256;28;20040;-68
2021/07/01 09:21:45;;;;;;;11.23;6.13;;;12.50;99.90;;;;;;5051019;28;20500;-68
2021/07/01 09:24:14;;;;;;;12.77;6.95;;;12.50;99.90;;;;;;5069759;28;20119;-67
2021/07/01 09:26:41;;;;;;;7.93;5.43;;;12.60;99.90;;;;;;5068290;28;20044;-68
2021/07/01 09:29:08;;;;;;;8.32;5.03;;;12.50;99.90;;;;;;5031672;28;20037;-68
2021/07/01 09:31:35;;;;;;;9.05;5.45;;;12.50;99.90;;;;;;5030786;28;20049;-67
2021/07/01 09:34:01;;;;;;;9.23;5.78;;;12.50;99.90;;;;;;5021886;28;20077;-68
2021/07/01 09:36:26;;;;;;;;;;;12.40;99.90;;;;;;5028872;28;20508;-67
2021/07/01 09:38:54;;;;;;;8.60;4.63;;;12.40;99.90;;;;;;5027075;28;19947;-67
2021/07/01 09:41:23;;;;;;;12.82;5.60;;;12.50;99.90;;;;;;5016872;28;20049;-68
2021/07/01 09:43:49;;;;;;;7.22;4.00;;;12.50;99.90;;;;;;5023163;28;20041;-68
2021/07/01 09:46:22;;;;;;;7.65;4.13;;;12.50;99.90;;;;;;5017618;28;20044;-67
2021/07/01 09:48:50;;;;;;;6.10;3.75;;;12.50;99.90;;;;;;5023135;28;20042;-67
2021/07/01 09:51:17;;;;;;;7.65;4.25;;;12.50;99.90;;;;;;5027214;28;20176;-68
2021/07/01 09:53:50;;;;;;;7.05;4.15;;;12.50;99.90;;;;;;5011140;28;20044;-68
2021/07/01 09:56:23;;;;;;;4.43;3.30;;;12.50;99.90;;;;;;5022929;28;20045;-67
2021/07/01 09:58:50;;;;;;;5.25;3.83;;;12.50;99.90;;;;;;5024854;28;20072;-67
2021/07/01 10:01:36;;;;;;;8.57;4.13;;;12.50;99.90;;;;;;5027612;28;20038;-67
2021/07/01 10:04:01;;;;;;;5.82;3.88;;;12.40;99.90;;;;;;5010723;28;20041;-67
2021/07/01 10:06:27;;;;;;;;;;;12.40;99.90;;;;;;5028534;28;20585;-68
2021/07/01 10:08:53;;;;;;;6.57;3.47;;;12.40;99.90;;;;;;5028343;28;19917;-69
2021/07/01 10:11:35;;;;;;;6.95;3.75;;;12.50;99.90;;;;;;5027179;28;20047;-68
2021/07/01 10:14:07;;;;;;;5.53;4.07;;;12.50;99.90;;;;;;5027743;28;20621;-67
2021/07/01 10:16:34;;;;;;;7.30;4.40;;;12.50;99.90;;;;;;5019899;28;20199;-67
2021/07/01 10:19:08;;;;;;;6.22;4.55;;;12.60;99.90;;;;;;5026867;28;20083;-67
2021/07/01 10:21:35;;;;;;;8.20;4.65;;;12.60;99.90;;;;;;5023574;28;20056;-67
2021/07/01 10:24:14;;;;;;;7.47;4.70;;;12.60;99.90;;;;;;5018928;28;20116;-68
2021/07/01 10:26:46;;;;;;;7.65;5.05;;;12.50;99.90;;;;;;5027000;28;20049;-67
2021/07/01 10:29:13;;;;;;;6.88;4.15;;;12.50;99.90;;;;;;5020486;28;20045;-66
2021/07/01 10:31:49;;;;;;;7.28;5.10;;;12.50;99.90;;;;;;5021017;28;20037;-67
2021/07/01 10:34:15;;;;;;;7.45;4.82;;;12.50;99.90;;;;;;5013466;28;20088;-69
2021/07/01 10:36:40;;;;;;;;;;;12.50;99.90;;;;;;5014153;28;20428;-70
2021/07/01 10:39:07;;;;;;;8.43;4.57;;;12.60;99.90;;;;;;5009444;28;19924;-68
2021/07/01 10:41:38;;;;;;;8.60;4.97;;;12.50;99.90;;;;;;5013979;28;20041;-68
2021/07/01 10:44:05;;;;;;;5.90;3.83;;;12.50;99.90;;;;;;5027896;28;20140;-69
2021/07/01 10:46:43;;;;;;;6.85;4.63;;;12.60;99.90;;;;;;5014466;28;20520;-69
2021/07/01 10:49:10;;;;;;;9.95;5.10;;;12.60;99.90;;;;;;5016639;28;20386;-69
2021/07/01 10:51:36;;;;;;;9.05;4.55;;;12.70;99.90;;;;;;5015937;28;20103;-68
2021/07/01 10:54:13;;;;;;;7.03;4.68;;;12.80;99.90;;;;;;5016477;28;20040;-68
2021/07/01 10:56:45;;;;;;;10.23;4.70;;;12.80;99.90;;;;;;5017551;28;20108;-68
2021/07/01 10:59:13;;;;;;;7.63;4.78;;;12.80;99.90;;;;;;4996448;28;20107;-68
2021/07/01 11:01:45;;;;;;;8.00;4.60;;;12.80;99.90;;;;;;5025863;28;20389;-68
2021/07/01 11:04:14;;;;;;;7.63;5.07;;;12.80;99.90;;;;;;5010250;28;20104;-68
2021/07/01 11:06:43;;;;;;;7.38;4.90;;;12.80;99.90;;;;;;5026697;28;20053;-68
2021/07/01 11:09:12;;;;;;;8.07;5.20;;;12.80;99.90;;;;;;5009560;28;20546;-68
2021/07/01 11:11:41;;;;;;;7.95;5.07;;;12.80;99.90;;;;;;5014926;28;20049;-68
2021/07/01 11:14:12;;;;;;;6.47;4.53;;;12.80;99.90;;;;;;4989651;28;20855;-68
2021/07/01 11:16:40;;;;;;;8.48;4.60;;;12.80;99.90;;;;;;5006802;28;20050;-68
2021/07/01 11:19:07;;;;;;;10.75;5.38;;;12.80;99.90;;;;;;5008220;28;20092;-68
2021/07/01 11:21:34;;;;;;;9.85;5.30;;;12.80;99.90;;;;;;4988578;28;20056;-68
2021/07/01 11:24:15;;;;;;;9.05;5.13;;;12.70;99.90;;;;;;5015126;28;20111;-69
2021/07/01 11:26:46;;;;;;;12.63;6.25;;;12.70;99.90;;;;;;5016147;28;20056;-68
2021/07/01 11:29:12;;;;;;;11.30;6.38;;;12.60;99.90;;;;;;5016908;28;20041;-68
2021/07/01 11:31:39;;;;;;;;;;;12.70;99.90;;;;;;5006187;28;20766;-68
2021/07/01 11:34:06;;;;;;;11.07;6.38;;;12.60;99.90;;;;;;5029380;28;19933;-68
2021/07/01 11:36:33;;;;;;;10.55;6.53;;;12.60;99.90;;;;;;5025298;28;20045;-68
2021/07/01 11:39:04;;;;;;;9.82;6.20;;;12.70;99.90;;;;;;5027844;28;20041;-68
2021/07/01 11:41:31;;;;;;;9.98;6.03;;;12.60;99.90;;;;;;5026715;28;20045;-68
2021/07/01 11:43:58;;;;;;;10.98;6.47;;;12.60;99.90;;;;;;5026896;28;20045;-69
2021/07/01 11:46:24;;;;;;;14.43;9.18;;;12.70;99.90;;;;;;5026504;28;20045;-68
2021/07/01 11:48:52;;;;;;;21.33;12.55;;;12.80;99.90;;;;;;5027565;28;20128;-68
2021/07/01 11:51:21;;;;;;;12.00;7.65;;;12.80;99.90;;;;;;5025260;28;20058;-68
2021/07/01 11:53:50;;;;;;;12.32;6.88;;;12.70;99.90;;;;;;5028140;28;20073;-67
2021/07/01 11:56:16;;;;;;;10.95;6.38;;;12.70;99.90;;;;;;5026153;28;20033;-69
2021/07/01 11:58:43;;;;;;;;;;;12.60;99.90;;;;;;5019898;28;20037;-68
2021/07/01 12:01:08;;;;;;;10.13;6.50;;;12.60;99.90;;;;;;5008889;28;20282;-68
2021/07/01 12:03:35;;;;;;;;;;;12.60;99.90;;;;;;5015879;28;20044;-68
2021/07/01 12:06:02;;;;;;;22.10;14.07;;;12.60;99.90;;;;;;5019085;28;19960;-68
2021/07/01 12:08:28;;;;;;;9.45;5.65;;;12.60;99.90;;;;;;5026474;28;20092;-68
2021/07/01 12:11:01;;;;;;;;;;;12.70;99.90;;;;;;5027581;28;20049;-68
2021/07/01 12:13:33;;;;;;;8.57;5.40;;;12.70;99.90;;;;;;5027896;28;20339;-67
2021/07/01 12:16:16;;;;;;;9.18;5.75;;;12.70;99.90;;;;;;5030682;28;20041;-68
2021/07/01 12:18:47;;;;;;;8.60;4.90;;;12.70;99.90;;;;;;5009531;28;20042;-68
2021/07/01 12:21:16;;;;;;;8.68;4.75;;;12.70;99.90;;;;;;5011150;28;20041;-68
2021/07/01 12:23:52;;;;;;;6.75;4.15;;;12.60;99.90;;;;;;5011074;28;20397;-68
2021/07/01 12:26:42;;;;;;;5.28;4.10;;;12.60;99.90;;;;;;4993631;28;20062;-67
2021/07/01 12:29:09;;;;;;;9.30;4.78;;;12.70;99.90;;;;;;5006013;28;20057;-68
2021/07/01 12:31:36;;;;;;;7.53;4.30;;;12.70;99.90;;;;;;5009974;28;20052;-69
2021/07/01 12:34:07;;;;;;;5.82;3.97;;;12.70;99.90;;;;;;5021824;28;20073;-69
2021/07/01 12:36:37;;;;;;;9.45;3.78;;;12.80;99.90;;;;;;5030087;28;20128;-68
2021/07/01 12:39:21;;;;;;;8.25;4.25;;;12.80;99.90;;;;;;5012226;28;20128;-68
2021/07/01 12:41:50;;;;;;;4.72;3.25;;;12.80;99.90;;;;;;5000868;28;20045;-68
2021/07/01 12:44:26;;;;;;;4.07;2.83;;;12.80;99.90;;;;;;5019158;28;20096;-68
2021/07/01 12:46:57;;;;;;;3.85;2.90;;;12.80;99.90;;;;;;5021306;28;20577;-68
2021/07/01 12:49:24;;;;;;;5.15;2.80;;;12.80;99.90;;;;;;5012443;28;20043;-68
2021/07/01 12:52:06;;;;;;;5.28;2.50;;;12.80;99.90;;;;;;5015830;28;20055;-68
2021/07/01 12:54:31;;;;;;;4.43;3.05;;;12.90;99.90;;;;;;5022428;28;20087;-68
2021/07/01 12:56:57;;;;;;;;;;;12.90;99.90;;;;;;5025450;28;20633;-68
2021/07/01 12:59:24;;;;;;;3.67;2.72;;;12.80;99.90;;;;;;5022420;28;19925;-68
2021/07/01 13:01:51;;;;;;;6.10;3.25;;;12.90;99.90;;;;;;5005970;28;20489;-68
2021/07/01 13:04:27;;;;;;;4.53;2.75;;;12.90;99.90;;;;;;5029558;28;20040;-68
2021/07/01 13:06:56;;;;;;;5.97;3.67;;;12.80;99.90;;;;;;5021951;28;20046;-68
2021/07/01 13:09:29;;;;;;;5.05;2.70;;;12.80;99.90;;;;;;5026207;28;20041;-68
2021/07/01 13:11:55;;;;;;;4.15;2.53;;;12.80;99.90;;;;;;5018422;28;20053;-68
2021/07/01 13:14:33;;;;;;;4.18;2.47;;;12.90;99.90;;;;;;5018016;28;20049;-68